createdAt,value
2018-12-14T00:01:53.248Z,18.12
2018-12-14T00:04:21.108Z,18.10
2018-12-14T00:06:48.872Z,19.42
2018-12-14T00:09:16.755Z,18.45
2018-12-14T00:11:45.628Z,18.42
2018-12-14T00:14:13.799Z,19.40
2018-12-14T00:16:41.387Z,17.70
2018-12-14T00:19:08.970Z,17.62
2018-12-14T00:21:36.579Z,18.80
2018-12-14T00:24:04.135Z,19.75
2018-12-14T00:26:31.712Z,19.20
2018-12-14T00:28:59.350Z,20.23
2018-12-14T00:31:26.947Z,18.90
2018-12-14T00:33:54.664Z,18.55
2018-12-14T00:36:22.302Z,16.95
2018-12-14T00:38:49.885Z,17.82
2018-12-14T00:41:17.539Z,16.77
2018-12-14T00:43:45.108Z,16.42
2018-12-14T00:46:12.736Z,16.97
2018-12-14T00:48:40.340Z,17.90
2018-12-14T00:51:07.929Z,18.70
2018-12-14T00:53:35.516Z,16.25
2018-12-14T00:56:03.133Z,18.50
2018-12-14T00:58:30.731Z,17.17
2018-12-14T01:00:58.283Z,18.90
2018-12-14T01:03:25.871Z,20.15
2018-12-14T01:05:53.432Z,18.80
2018-12-14T01:08:22.399Z,18.48
2018-12-14T01:10:49.952Z,17.05
2018-12-14T01:13:17.580Z,16.97
2018-12-14T01:15:45.143Z,17.02
2018-12-14T01:18:12.711Z,18.90
2018-12-14T01:20:40.317Z,18.25
2018-12-14T01:23:07.991Z,16.02
2018-12-14T01:25:35.567Z,19.02
2018-12-14T01:28:03.206Z,17.55
2018-12-14T01:30:30.781Z,17.80
2018-12-14T01:32:58.353Z,17.87
2018-12-14T01:35:25.985Z,17.85
2018-12-14T01:37:53.560Z,19.77
2018-12-14T01:40:21.161Z,16.80
2018-12-14T01:42:48.729Z,18.57
2018-12-14T01:45:16.342Z,15.90
2018-12-14T01:47:43.947Z,17.23
2018-12-14T01:50:11.507Z,18.37
2018-12-14T01:52:39.335Z,17.92
2018-12-14T01:55:07.020Z,16.30
2018-12-14T01:57:34.967Z,17.62
2018-12-14T02:00:02.827Z,18.40
2018-12-14T02:02:30.426Z,19.10
2018-12-14T02:04:58.034Z,19.75
2018-12-14T02:07:25.612Z,17.40
2018-12-14T02:09:53.206Z,19.40
2018-12-14T02:12:20.830Z,18.30
2018-12-14T02:14:48.394Z,16.65
2018-12-14T02:17:16.034Z,16.82
2018-12-14T02:19:43.619Z,18.62
2018-12-14T02:22:11.211Z,19.23
2018-12-14T02:24:38.823Z,17.23
2018-12-14T02:27:06.726Z,18.32
2018-12-14T02:29:34.541Z,17.50
2018-12-14T02:32:02.289Z,17.27
2018-12-14T02:34:30.084Z,15.90
2018-12-14T02:36:57.786Z,19.45
2018-12-14T02:39:25.624Z,18.60
2018-12-14T02:41:53.377Z,19.95
2018-12-14T02:44:21.180Z,18.92
2018-12-14T02:46:48.979Z,17.98
2018-12-14T02:49:16.690Z,19.15
2018-12-14T02:51:44.427Z,16.75
2018-12-14T02:54:12.180Z,19.10
2018-12-14T02:56:39.911Z,19.57
2018-12-14T02:59:07.753Z,17.37
2018-12-14T03:01:35.608Z,17.45
2018-12-14T03:04:04.025Z,19.62
2018-12-14T03:06:31.761Z,17.48
2018-12-14T03:08:59.524Z,18.15
2018-12-14T03:11:27.233Z,17.73
2018-12-14T03:13:54.998Z,17.62
2018-12-14T03:16:22.782Z,18.90
2018-12-14T03:18:50.555Z,17.17
2018-12-14T03:21:18.363Z,19.00
2018-12-14T03:23:46.073Z,18.85
2018-12-14T03:26:13.943Z,16.50
2018-12-14T03:28:41.746Z,19.15
2018-12-14T03:31:09.527Z,17.67
2018-12-14T03:33:38.018Z,17.70
2018-12-14T03:36:05.770Z,18.15
2018-12-14T03:38:33.496Z,18.40
2018-12-14T03:41:02.272Z,19.05
2018-12-14T03:43:31.940Z,18.15
2018-12-14T03:45:59.678Z,19.40
2018-12-14T03:48:27.445Z,17.95
2018-12-14T03:50:55.252Z,18.25
2018-12-14T03:53:23.025Z,16.95
2018-12-14T03:55:50.801Z,18.92
2018-12-14T03:58:18.591Z,17.57
2018-12-14T04:00:46.544Z,17.35
2018-12-14T04:03:14.305Z,20.55
2018-12-14T04:05:42.182Z,17.98
2018-12-14T04:08:09.961Z,19.98
2018-12-14T04:10:38.717Z,18.50
2018-12-14T04:13:06.480Z,19.32
2018-12-14T04:15:34.227Z,17.05
2018-12-14T04:18:02.032Z,17.10
2018-12-14T04:20:29.802Z,18.37
2018-12-14T04:22:57.542Z,18.55
2018-12-14T04:25:25.301Z,16.62
2018-12-14T04:27:53.090Z,18.62
2018-12-14T04:30:20.969Z,17.05
2018-12-14T04:32:48.768Z,19.20
2018-12-14T04:35:17.170Z,19.27
2018-12-14T04:37:44.934Z,21.00
2018-12-14T04:40:13.606Z,17.50
2018-12-14T04:42:48.616Z,18.80
2018-12-14T04:45:12.003Z,19.42
2018-12-14T04:47:40.698Z,18.67
2018-12-14T04:50:08.618Z,18.92
2018-12-14T04:52:36.397Z,19.52
2018-12-14T04:55:05.712Z,19.42
2018-12-14T04:57:33.519Z,19.95
2018-12-14T05:00:01.322Z,17.42
2018-12-14T05:02:29.117Z,17.82
2018-12-14T05:04:56.958Z,19.17
2018-12-14T05:07:24.735Z,18.25
2018-12-14T05:09:52.618Z,20.43
2018-12-14T05:12:20.407Z,17.95
2018-12-14T05:14:48.403Z,20.00
2018-12-14T05:17:16.861Z,19.07
2018-12-14T05:19:44.607Z,19.67
2018-12-14T05:22:12.886Z,19.32
2018-12-14T05:24:40.651Z,18.32
2018-12-14T05:27:08.661Z,18.90
2018-12-14T05:29:36.392Z,19.30
2018-12-14T05:32:05.075Z,19.02
2018-12-14T05:34:32.946Z,18.32
2018-12-14T05:37:00.701Z,18.52
2018-12-14T05:39:29.373Z,18.05
2018-12-14T05:41:57.102Z,18.40
2018-12-14T05:44:25.041Z,17.90
2018-12-14T05:46:52.822Z,18.45
2018-12-14T05:49:21.311Z,18.57
2018-12-14T05:51:49.944Z,19.57
2018-12-14T05:54:17.810Z,17.73
2018-12-14T05:56:46.063Z,19.02
2018-12-14T05:59:13.948Z,18.90
2018-12-14T06:01:42.242Z,18.05
2018-12-14T06:04:10.144Z,17.98
2018-12-14T06:06:38.152Z,19.00
2018-12-14T06:09:07.619Z,18.98
2018-12-14T06:11:35.371Z,18.48
2018-12-14T06:14:03.130Z,19.07
2018-12-14T06:16:30.870Z,18.12
2018-12-14T06:18:58.661Z,19.55
2018-12-14T06:21:27.160Z,18.23
2018-12-14T06:23:54.940Z,18.50
2018-12-14T06:26:22.644Z,20.68
2018-12-14T06:28:50.393Z,17.73
2018-12-14T06:31:18.185Z,18.95
2018-12-14T06:33:45.918Z,21.30
2018-12-14T06:36:13.693Z,18.02
2018-12-14T06:38:41.636Z,18.32
2018-12-14T06:41:10.484Z,18.35
2018-12-14T06:43:38.609Z,17.92
2018-12-14T06:46:07.448Z,19.48
2018-12-14T06:48:35.798Z,16.77
2018-12-14T06:51:05.426Z,19.77
2018-12-14T06:53:35.030Z,17.67
2018-12-14T06:56:04.296Z,19.15
2018-12-14T06:58:32.942Z,15.28
2018-12-14T07:01:01.549Z,18.15
2018-12-14T07:03:31.014Z,18.05
2018-12-14T07:05:58.844Z,15.72
2018-12-14T07:08:27.670Z,16.97
2018-12-14T07:10:56.155Z,18.70
2018-12-14T07:13:25.311Z,18.85
2018-12-14T07:15:54.034Z,17.77
2018-12-14T07:18:22.695Z,17.57
2018-12-14T07:20:51.369Z,17.30
2018-12-14T07:23:20.113Z,18.17
2018-12-14T07:25:48.577Z,17.98
2018-12-14T07:28:17.436Z,17.32
2018-12-14T07:30:46.738Z,18.48
2018-12-14T07:33:17.006Z,19.00
2018-12-14T07:35:50.482Z,18.17
2018-12-14T07:38:19.806Z,17.07
2018-12-14T07:40:48.410Z,19.45
2018-12-14T07:43:16.966Z,19.62
2018-12-14T07:45:45.907Z,18.67
2018-12-14T07:48:13.767Z,17.32
2018-12-14T07:50:42.358Z,17.17
2018-12-14T07:53:11.430Z,18.00
2018-12-14T07:55:39.907Z,18.73
2018-12-14T07:58:08.413Z,18.80
2018-12-14T08:00:36.808Z,19.80
2018-12-14T08:03:07.561Z,17.87
2018-12-14T08:05:36.874Z,18.07
2018-12-14T08:08:05.563Z,19.50
2018-12-14T08:10:33.885Z,16.82
2018-12-14T08:13:04.319Z,18.40
2018-12-14T08:15:33.031Z,18.20
2018-12-14T08:18:01.514Z,18.35
2018-12-14T08:20:29.990Z,17.75
2018-12-14T08:25:32.614Z,18.87
2018-12-14T08:28:03.333Z,19.48
2018-12-14T08:30:31.774Z,16.73
2018-12-14T08:33:00.520Z,19.00
2018-12-14T08:35:29.169Z,18.77
2018-12-14T08:37:57.960Z,18.23
2018-12-14T08:40:26.607Z,18.50
2018-12-14T08:42:57.279Z,17.90
2018-12-14T08:45:25.167Z,18.57
2018-12-14T08:47:53.022Z,18.07
2018-12-14T08:50:21.573Z,15.90
2018-12-14T08:52:49.467Z,18.30
2018-12-14T08:55:17.499Z,19.62
2018-12-14T08:57:46.826Z,18.25
2018-12-14T09:00:14.813Z,18.80
2018-12-14T09:02:43.917Z,17.73
2018-12-14T09:05:11.850Z,17.02
2018-12-14T09:07:40.371Z,17.92
2018-12-14T09:10:09.226Z,17.15
2018-12-14T09:12:38.241Z,17.50
2018-12-14T09:15:08.658Z,16.85
2018-12-14T09:17:37.824Z,16.57
2018-12-14T09:20:06.255Z,17.77
2018-12-14T09:22:34.762Z,18.75
2018-12-14T09:25:04.058Z,18.07
2018-12-14T09:27:33.458Z,16.05
2018-12-14T09:30:04.197Z,18.25
2018-12-14T09:32:32.514Z,20.05
2018-12-14T09:35:00.865Z,18.90
2018-12-14T09:37:28.767Z,17.25
2018-12-14T09:39:57.408Z,18.75
2018-12-14T09:42:27.572Z,19.15
2018-12-14T09:44:57.201Z,21.33
2018-12-14T09:47:25.303Z,19.90
2018-12-14T09:49:54.311Z,17.23
2018-12-14T09:52:22.136Z,18.62
2018-12-14T09:54:51.371Z,17.07
2018-12-14T09:57:19.205Z,20.10
2018-12-14T09:59:47.462Z,16.60
2018-12-14T10:02:15.641Z,17.77
2018-12-14T10:04:43.913Z,17.57
2018-12-14T10:07:11.792Z,14.40
2018-12-14T10:09:41.047Z,17.57
2018-12-14T10:12:08.922Z,17.75
2018-12-14T10:14:36.686Z,17.48
2018-12-14T10:17:05.326Z,17.57
2018-12-14T10:19:34.260Z,17.70
2018-12-14T10:22:02.140Z,17.60
2018-12-14T10:24:32.503Z,18.40
2018-12-14T10:27:01.285Z,18.37
2018-12-14T10:29:30.026Z,19.17
2018-12-14T10:31:58.281Z,19.10
2018-12-14T10:34:27.979Z,18.92
2018-12-14T10:36:56.588Z,17.65
2018-12-14T10:39:25.250Z,18.92
2018-12-14T10:41:53.742Z,18.90
2018-12-14T10:44:22.207Z,17.52
2018-12-14T10:46:52.140Z,17.45
2018-12-14T10:49:20.432Z,19.37
2018-12-14T10:51:48.414Z,18.75
2018-12-14T10:54:16.533Z,17.95
2018-12-14T10:56:44.806Z,17.90
2018-12-14T10:59:13.450Z,16.15
2018-12-14T11:01:47.056Z,17.42
2018-12-14T11:04:15.932Z,17.85
2018-12-14T11:06:44.716Z,17.90
2018-12-14T11:09:12.984Z,17.80
2018-12-14T11:11:41.099Z,18.20
2018-12-14T11:14:13.992Z,18.27
2018-12-14T11:16:40.522Z,17.00
2018-12-14T11:19:08.599Z,17.60
2018-12-14T11:21:36.887Z,18.62
2018-12-14T11:24:05.358Z,17.42
2018-12-14T11:26:33.228Z,16.70
2018-12-14T11:29:01.103Z,18.27
2018-12-14T11:31:29.434Z,16.48
2018-12-14T11:33:57.354Z,17.55
2018-12-14T11:36:25.236Z,19.52
2018-12-14T11:38:53.123Z,16.30
2018-12-14T11:41:21.378Z,19.00
2018-12-14T11:43:49.220Z,18.25
2018-12-14T11:46:18.276Z,17.75
2018-12-14T11:48:46.080Z,18.37
2018-12-14T11:51:14.506Z,19.42
2018-12-14T11:53:42.572Z,18.57
2018-12-14T11:56:10.780Z,16.62
2018-12-14T11:58:39.066Z,18.00
2018-12-14T12:01:06.924Z,19.00
2018-12-14T12:03:34.844Z,18.50
2018-12-14T12:06:03.039Z,18.20
2018-12-14T12:08:30.950Z,17.77
2018-12-14T12:11:00.519Z,17.48
2018-12-14T12:13:29.331Z,16.12
2018-12-14T12:15:59.487Z,17.52
2018-12-14T12:18:28.321Z,17.92
2018-12-14T12:20:56.564Z,17.45
2018-12-14T12:23:25.587Z,17.90
2018-12-14T12:25:54.131Z,19.87
2018-12-14T12:28:24.172Z,18.42
2018-12-14T12:30:52.735Z,18.73
2018-12-14T12:33:22.241Z,19.45
2018-12-14T12:35:51.521Z,18.80
2018-12-14T12:38:21.209Z,18.25
2018-12-14T12:40:51.296Z,18.12
2018-12-14T12:43:21.122Z,19.17
2018-12-14T12:45:49.162Z,18.50
2018-12-14T12:48:17.270Z,17.67
2018-12-14T12:50:45.635Z,19.48
2018-12-14T12:53:15.518Z,18.57
2018-12-14T12:55:43.647Z,17.35
2018-12-14T12:58:11.440Z,19.82
2018-12-14T13:00:40.851Z,17.73
2018-12-14T13:03:09.657Z,18.30
2018-12-14T13:05:37.461Z,19.87
2018-12-14T13:08:05.281Z,17.82
2018-12-14T13:10:34.944Z,19.65
2018-12-14T13:13:02.760Z,19.65
2018-12-14T13:15:30.975Z,17.70
2018-12-14T13:17:58.867Z,17.15
2018-12-14T13:20:26.767Z,16.95
2018-12-14T13:22:54.657Z,17.62
2018-12-14T13:25:23.004Z,15.78
2018-12-14T13:27:51.032Z,18.25
2018-12-14T13:30:19.767Z,16.48
2018-12-14T13:32:48.974Z,16.50
2018-12-14T13:35:17.436Z,17.12
2018-12-14T13:37:46.191Z,16.52
2018-12-14T13:40:15.666Z,17.67
2018-12-14T13:42:44.247Z,15.98
2018-12-14T13:45:12.084Z,16.45
2018-12-14T13:47:39.992Z,17.02
2018-12-14T13:50:07.981Z,18.30
2018-12-14T13:52:36.935Z,17.07
2018-12-14T13:55:05.434Z,16.75
2018-12-14T13:57:33.148Z,17.20
2018-12-14T14:00:02.162Z,18.05
2018-12-14T14:02:29.975Z,16.82
2018-12-14T14:04:58.217Z,17.07
2018-12-14T14:07:26.012Z,15.18
2018-12-14T14:09:53.905Z,18.17
2018-12-14T14:12:22.021Z,18.67
2018-12-14T14:14:53.147Z,15.70
2018-12-14T14:17:21.188Z,16.73
2018-12-14T14:19:49.489Z,13.93
2018-12-14T14:22:19.251Z,16.60
2018-12-14T14:24:47.715Z,15.23
2018-12-14T14:27:16.113Z,16.15
2018-12-14T14:29:45.270Z,19.32
2018-12-14T14:32:14.042Z,16.97
2018-12-14T14:34:43.755Z,14.18
2018-12-14T14:37:12.603Z,15.50
2018-12-14T14:39:40.367Z,18.60
2018-12-14T14:42:09.337Z,14.63
2018-12-14T14:44:39.399Z,15.10
2018-12-14T14:47:07.770Z,14.50
2018-12-14T14:49:37.125Z,15.45
2018-12-14T14:52:05.761Z,15.40
2018-12-14T14:54:39.821Z,16.32
2018-12-14T14:57:07.445Z,13.83
2018-12-14T14:59:36.789Z,15.72
2018-12-14T15:02:04.659Z,15.45
2018-12-14T15:04:35.151Z,15.23
2018-12-14T15:07:04.816Z,17.77
2018-12-14T15:09:32.687Z,16.77
2018-12-14T15:12:02.170Z,17.35
2018-12-14T15:14:30.114Z,17.30
2018-12-14T15:16:57.887Z,16.20
2018-12-14T15:19:26.240Z,14.40
2018-12-14T15:21:54.235Z,16.93
2018-12-14T15:24:22.482Z,17.02
2018-12-14T15:26:51.014Z,17.85
2018-12-14T15:29:18.925Z,16.75
2018-12-14T15:31:48.382Z,16.60
2018-12-14T15:34:16.255Z,15.85
2018-12-14T15:36:45.047Z,16.65
2018-12-14T15:39:13.395Z,16.48
2018-12-14T15:41:41.324Z,17.52
2018-12-14T15:44:09.044Z,16.90
2018-12-14T15:46:38.830Z,15.55
2018-12-14T15:49:08.077Z,17.70
2018-12-14T15:51:37.363Z,16.65
2018-12-14T15:54:06.070Z,17.25
2018-12-14T15:56:35.230Z,14.90
2018-12-14T15:59:03.699Z,16.05
2018-12-14T16:01:32.459Z,16.60
2018-12-14T16:04:08.508Z,16.27
2018-12-14T16:06:37.045Z,15.38
2018-12-14T16:09:06.001Z,14.87
2018-12-14T16:11:35.215Z,16.32
2018-12-14T16:14:04.054Z,14.75
2018-12-14T16:16:35.594Z,15.85
2018-12-14T16:19:04.191Z,14.33
2018-12-14T16:21:33.743Z,15.10
2018-12-14T16:24:01.482Z,15.32
2018-12-14T16:26:29.340Z,16.50
2018-12-14T16:28:57.113Z,15.70
2018-12-14T16:31:24.887Z,15.20
2018-12-14T16:33:52.644Z,16.62
2018-12-14T16:36:21.234Z,14.20
2018-12-14T16:38:48.915Z,15.38
2018-12-14T16:41:16.687Z,15.40
2018-12-14T16:43:44.495Z,13.25
2018-12-14T16:46:12.373Z,15.15
2018-12-14T16:48:40.206Z,15.53
2018-12-14T16:51:07.939Z,15.95
2018-12-14T16:53:37.800Z,16.52
2018-12-14T16:56:05.623Z,15.40
2018-12-14T16:58:33.449Z,15.55
2018-12-14T17:01:01.225Z,16.65
2018-12-14T17:03:29.183Z,15.25
2018-12-14T17:05:56.992Z,15.25
2018-12-14T17:08:24.846Z,15.50
2018-12-14T17:10:52.684Z,16.60
2018-12-14T17:13:21.324Z,14.83
2018-12-14T17:15:49.035Z,14.95
2018-12-14T17:18:16.888Z,17.87
2018-12-14T17:20:44.657Z,15.05
2018-12-14T17:23:12.563Z,15.15
2018-12-14T17:25:40.319Z,15.15
2018-12-14T17:28:08.098Z,15.60
2018-12-14T17:30:35.801Z,16.25
2018-12-14T17:33:03.751Z,16.90
2018-12-14T17:35:31.602Z,14.60
2018-12-14T17:37:59.344Z,17.45
2018-12-14T17:40:27.155Z,15.72
2018-12-14T17:42:55.091Z,15.95
2018-12-14T17:45:23.602Z,15.78
2018-12-14T17:47:51.337Z,16.93
2018-12-14T17:50:19.284Z,14.85
2018-12-14T17:52:47.214Z,15.75
2018-12-14T17:55:15.050Z,14.40
2018-12-14T17:57:42.848Z,16.35
2018-12-14T18:00:10.774Z,14.95
2018-12-14T18:02:38.859Z,16.57
2018-12-14T18:05:08.601Z,13.83
2018-12-14T18:07:36.392Z,14.30
2018-12-14T18:10:04.453Z,13.93
2018-12-14T18:12:32.286Z,13.32
2018-12-14T18:14:59.946Z,13.95
2018-12-14T18:17:27.691Z,15.08
2018-12-14T18:19:55.489Z,14.15
2018-12-14T18:22:24.792Z,14.90
2018-12-14T18:24:54.874Z,14.40
2018-12-14T18:27:22.795Z,13.88
2018-12-14T18:29:50.531Z,13.80
2018-12-14T18:32:18.335Z,13.48
2018-12-14T18:34:46.179Z,13.55
2018-12-14T18:37:13.950Z,15.20
2018-12-14T18:39:41.831Z,14.05
2018-12-14T18:42:09.612Z,14.73
2018-12-14T18:44:37.350Z,13.13
2018-12-14T18:47:06.030Z,14.07
2018-12-14T18:49:33.775Z,15.10
2018-12-14T18:52:01.532Z,14.13
2018-12-14T18:54:29.289Z,14.55
2018-12-14T18:56:57.041Z,13.18
2018-12-14T18:59:24.894Z,15.20
2018-12-14T19:01:53.489Z,12.98
2018-12-14T19:04:21.271Z,14.00
2018-12-14T19:06:48.981Z,14.65
2018-12-14T19:09:16.723Z,15.05
2018-12-14T19:11:44.523Z,15.10
2018-12-14T19:14:12.320Z,16.35
2018-12-14T19:16:40.056Z,14.87
2018-12-14T19:19:07.855Z,14.03
2018-12-14T19:21:35.590Z,14.35
2018-12-14T19:24:03.290Z,15.18
2018-12-14T19:26:31.172Z,15.00
2018-12-14T19:28:59.891Z,14.47
2018-12-14T19:31:27.728Z,14.73
2018-12-14T19:33:56.317Z,16.52
2018-12-14T19:36:24.100Z,16.25
2018-12-14T19:38:51.953Z,16.82
2018-12-14T19:41:19.709Z,14.15
2018-12-14T19:43:47.491Z,15.68
2018-12-14T19:46:15.342Z,15.40
2018-12-14T19:48:43.077Z,15.58
2018-12-14T19:51:10.939Z,14.80
2018-12-14T19:53:38.767Z,14.35
2018-12-14T19:56:06.576Z,15.03
2018-12-14T19:58:34.467Z,13.50
2018-12-14T20:01:02.268Z,15.20
2018-12-14T20:03:30.119Z,16.87
2018-12-14T20:05:57.885Z,13.95
2018-12-14T20:08:25.654Z,14.85
2018-12-14T20:10:53.428Z,15.70
2018-12-14T20:13:21.306Z,15.95
2018-12-14T20:15:49.051Z,15.65
2018-12-14T20:18:17.794Z,15.00
2018-12-14T20:20:45.529Z,16.62
2018-12-14T20:23:13.267Z,13.18
2018-12-14T20:25:40.974Z,15.60
2018-12-14T20:28:08.746Z,15.32
2018-12-14T20:30:37.286Z,14.63
2018-12-14T20:33:05.077Z,13.40
2018-12-14T20:35:32.950Z,14.93
2018-12-14T20:38:00.977Z,15.45
2018-12-14T20:40:28.720Z,15.85
2018-12-14T20:42:57.410Z,14.60
2018-12-14T20:45:25.190Z,14.20
2018-12-14T20:47:52.968Z,13.78
2018-12-14T20:50:20.723Z,13.35
2018-12-14T20:52:48.645Z,14.93
2018-12-14T20:55:16.344Z,15.05
2018-12-14T20:57:44.176Z,15.18
2018-12-14T21:00:12.184Z,15.10
2018-12-14T21:02:40.079Z,16.40
2018-12-14T21:05:08.075Z,13.53
2018-12-14T21:07:36.597Z,14.15
2018-12-14T21:10:04.916Z,13.15
2018-12-14T21:12:33.290Z,13.22
2018-12-14T21:15:01.095Z,14.03
2018-12-14T21:17:28.845Z,12.93
2018-12-14T21:19:56.581Z,16.15
2018-12-14T21:22:24.261Z,13.83
2018-12-14T21:24:52.002Z,14.18
2018-12-14T21:27:19.732Z,14.20
2018-12-14T21:29:47.456Z,15.18
2018-12-14T21:32:15.189Z,13.65
2018-12-14T21:34:42.918Z,14.25
2018-12-14T21:37:11.296Z,12.60
2018-12-14T21:39:39.633Z,13.53
2018-12-14T21:42:08.125Z,12.90
2018-12-14T21:44:35.840Z,12.80
2018-12-14T21:47:03.685Z,13.13
2018-12-14T21:49:31.382Z,13.40
2018-12-14T21:51:59.191Z,13.32
2018-12-14T21:54:26.870Z,14.23
2018-12-14T21:56:54.605Z,13.40
2018-12-14T21:59:22.398Z,14.47
2018-12-14T22:01:50.098Z,13.28
2018-12-14T22:04:17.894Z,13.15
2018-12-14T22:06:45.630Z,13.78
2018-12-14T22:09:13.416Z,14.20
2018-12-14T22:11:41.966Z,14.35
2018-12-14T22:14:09.655Z,15.50
2018-12-14T22:16:39.340Z,13.83
2018-12-14T22:19:07.307Z,14.10
2018-12-14T22:21:35.226Z,14.85
2018-12-14T22:24:02.911Z,17.50
2018-12-14T22:26:31.255Z,14.43
2018-12-14T22:28:59.115Z,13.95
2018-12-14T22:31:26.775Z,17.30
2018-12-14T22:33:54.633Z,14.33
2018-12-14T22:36:23.047Z,13.22
2018-12-14T22:38:50.841Z,13.45
2018-12-14T22:41:18.574Z,12.55
2018-12-14T22:43:46.316Z,12.20
2018-12-14T22:46:14.008Z,14.43
2018-12-14T22:48:42.292Z,13.95
2018-12-14T22:51:10.070Z,12.35
2018-12-14T22:53:37.837Z,12.30
2018-12-14T22:56:05.638Z,15.00
2018-12-14T22:58:33.433Z,12.37
2018-12-14T23:01:01.306Z,12.75
2018-12-14T23:03:29.287Z,13.25
2018-12-14T23:05:57.093Z,13.18
2018-12-14T23:08:24.885Z,11.90
2018-12-14T23:10:54.633Z,12.80
2018-12-14T23:13:22.489Z,12.78
2018-12-14T23:15:50.229Z,14.13
2018-12-14T23:18:18.013Z,13.83
2018-12-14T23:20:45.804Z,12.78
2018-12-14T23:23:13.546Z,13.95
2018-12-14T23:25:42.096Z,14.00
2018-12-14T23:28:09.812Z,13.45
2018-12-14T23:30:37.566Z,12.75
2018-12-14T23:33:06.012Z,14.35
2018-12-14T23:35:35.368Z,13.38
2018-12-14T23:38:03.061Z,14.10
2018-12-14T23:40:30.837Z,13.93
2018-12-14T23:42:58.663Z,14.53
2018-12-14T23:45:26.367Z,14.07
2018-12-14T23:47:54.040Z,14.53
2018-12-14T23:50:21.843Z,13.32
2018-12-14T23:52:49.565Z,12.60
2018-12-14T23:55:17.329Z,12.28
2018-12-14T23:57:45.077Z,14.20
